sensor_id;sensor_type;location;lat;lon;timestamp;P1;durP1;ratioP1;P2;durP2;ratioP2
51190;SDS011;37253;48.736;9.294;2023-07-29T00:01:21;11.65;;;5.95;;
51190;SDS011;37253;48.736;9.294;2023-07-29T00:03:21;11.43;;;6.78;;
51190;SDS011;37253;48.736;9.294;2023-07-29T00:05:22;8.82;;;5.45;;
51190;SDS011;37253;48.736;9.294;2023-07-29T00:07:22;11.07;;;6.18;;
51190;SDS011;37253;48.736;9.294;2023-07-29T00:09:22;11.65;;;6.13;;
51190;SDS011;37253;48.736;9.294;2023-07-29T00:11:22;12.82;;;6.07;;
51190;SDS011;37253;48.736;9.294;2023-07-29T00:13:23;11.77;;;5.53;;
51190;SDS011;37253;48.736;9.294;2023-07-29T00:15:23;10.32;;;5.82;;
51190;SDS011;37253;48.736;9.294;2023-07-29T00:17:23;11.20;;;6.00;;
51190;SDS011;37253;48.736;9.294;2023-07-29T00:19:24;11.35;;;5.70;;
51190;SDS011;37253;48.736;9.294;2023-07-29T00:21:24;9.98;;;6.25;;
51190;SDS011;37253;48.736;9.294;2023-07-29T00:23:24;10.68;;;5.75;;
51190;SDS011;37253;48.736;9.294;2023-07-29T00:25:25;9.93;;;5.93;;
51190;SDS011;37253;48.736;9.294;2023-07-29T00:27:25;9.15;;;5.43;;
51190;SDS011;37253;48.736;9.294;2023-07-29T00:29:26;10.52;;;5.47;;
51190;SDS011;37253;48.736;9.294;2023-07-29T00:31:26;11.20;;;6.22;;
51190;SDS011;37253;48.736;9.294;2023-07-29T00:33:26;8.57;;;5.47;;
51190;SDS011;37253;48.736;9.294;2023-07-29T00:35:27;7.70;;;5.55;;
51190;SDS011;37253;48.736;9.294;2023-07-29T00:37:27;11.13;;;5.13;;
51190;SDS011;37253;48.736;9.294;2023-07-29T00:39:28;9.35;;;5.80;;
51190;SDS011;37253;48.736;9.294;2023-07-29T00:41:28;8.65;;;5.10;;
51190;SDS011;37253;48.736;9.294;2023-07-29T00:43:29;9.15;;;5.30;;
51190;SDS011;37253;48.736;9.294;2023-07-29T00:45:29;7.80;;;5.05;;
51190;SDS011;37253;48.736;9.294;2023-07-29T00:47:30;9.85;;;4.90;;
51190;SDS011;37253;48.736;9.294;2023-07-29T00:49:30;10.15;;;5.50;;
51190;SDS011;37253;48.736;9.294;2023-07-29T00:51:31;10.68;;;4.70;;
51190;SDS011;37253;48.736;9.294;2023-07-29T00:53:31;6.50;;;4.90;;
51190;SDS011;37253;48.736;9.294;2023-07-29T00:55:32;7.28;;;4.72;;
51190;SDS011;37253;48.736;9.294;2023-07-29T00:57:32;6.63;;;4.40;;
51190;SDS011;37253;48.736;9.294;2023-07-29T00:59:33;9.05;;;4.47;;
51190;SDS011;37253;48.736;9.294;2023-07-29T01:01:35;6.13;;;4.00;;
51190;SDS011;37253;48.736;9.294;2023-07-29T01:03:35;6.40;;;4.28;;
51190;SDS011;37253;48.736;9.294;2023-07-29T01:05:41;6.00;;;4.07;;
51190;SDS011;37253;48.736;9.294;2023-07-29T01:07:51;7.72;;;4.43;;
51190;SDS011;37253;48.736;9.294;2023-07-29T01:10:07;6.25;;;4.38;;
51190;SDS011;37253;48.736;9.294;2023-07-29T01:14:35;7.68;;;4.88;;
51190;SDS011;37253;48.736;9.294;2023-07-29T01:16:42;6.07;;;3.92;;
51190;SDS011;37253;48.736;9.294;2023-07-29T01:18:43;7.28;;;4.38;;
51190;SDS011;37253;48.736;9.294;2023-07-29T01:20:46;7.13;;;4.32;;
51190;SDS011;37253;48.736;9.294;2023-07-29T01:22:47;7.40;;;4.43;;
51190;SDS011;37253;48.736;9.294;2023-07-29T01:24:48;7.35;;;4.50;;
51190;SDS011;37253;48.736;9.294;2023-07-29T01:26:48;6.65;;;4.15;;
51190;SDS011;37253;48.736;9.294;2023-07-29T01:28:49;8.23;;;4.10;;
51190;SDS011;37253;48.736;9.294;2023-07-29T01:30:49;7.65;;;4.68;;
51190;SDS011;37253;48.736;9.294;2023-07-29T01:32:59;11.65;;;4.32;;
51190;SDS011;37253;48.736;9.294;2023-07-29T01:35:15;7.70;;;3.85;;
51190;SDS011;37253;48.736;9.294;2023-07-29T01:37:19;5.57;;;3.95;;
51190;SDS011;37253;48.736;9.294;2023-07-29T01:41:22;7.10;;;4.20;;
51190;SDS011;37253;48.736;9.294;2023-07-29T01:43:24;6.43;;;3.75;;
51190;SDS011;37253;48.736;9.294;2023-07-29T01:45:25;6.13;;;3.65;;
51190;SDS011;37253;48.736;9.294;2023-07-29T01:47:26;6.78;;;3.78;;
51190;SDS011;37253;48.736;9.294;2023-07-29T01:49:26;5.80;;;3.72;;
51190;SDS011;37253;48.736;9.294;2023-07-29T01:51:27;6.60;;;3.72;;
51190;SDS011;37253;48.736;9.294;2023-07-29T01:53:27;5.97;;;3.42;;
51190;SDS011;37253;48.736;9.294;2023-07-29T01:55:28;5.72;;;3.38;;
51190;SDS011;37253;48.736;9.294;2023-07-29T01:57:28;6.47;;;3.83;;
51190;SDS011;37253;48.736;9.294;2023-07-29T01:59:29;7.78;;;3.97;;
51190;SDS011;37253;48.736;9.294;2023-07-29T02:01:29;6.43;;;3.85;;
51190;SDS011;37253;48.736;9.294;2023-07-29T02:03:31;5.32;;;3.40;;
51190;SDS011;37253;48.736;9.294;2023-07-29T02:05:31;3.97;;;3.13;;
51190;SDS011;37253;48.736;9.294;2023-07-29T02:07:31;9.27;;;4.03;;
51190;SDS011;37253;48.736;9.294;2023-07-29T02:09:32;6.55;;;3.60;;
51190;SDS011;37253;48.736;9.294;2023-07-29T02:11:32;5.63;;;3.22;;
51190;SDS011;37253;48.736;9.294;2023-07-29T02:13:32;8.38;;;3.63;;
51190;SDS011;37253;48.736;9.294;2023-07-29T02:15:33;7.50;;;3.75;;
51190;SDS011;37253;48.736;9.294;2023-07-29T02:17:33;5.88;;;3.20;;
51190;SDS011;37253;48.736;9.294;2023-07-29T02:19:34;5.22;;;3.20;;
51190;SDS011;37253;48.736;9.294;2023-07-29T02:21:34;5.03;;;3.15;;
51190;SDS011;37253;48.736;9.294;2023-07-29T02:23:34;4.32;;;3.08;;
51190;SDS011;37253;48.736;9.294;2023-07-29T02:25:35;4.95;;;3.22;;
51190;SDS011;37253;48.736;9.294;2023-07-29T02:27:36;4.00;;;3.03;;
51190;SDS011;37253;48.736;9.294;2023-07-29T02:29:36;3.83;;;3.17;;
51190;SDS011;37253;48.736;9.294;2023-07-29T02:31:37;5.40;;;3.47;;
51190;SDS011;37253;48.736;9.294;2023-07-29T02:33:38;4.82;;;3.17;;
51190;SDS011;37253;48.736;9.294;2023-07-29T02:35:38;4.53;;;3.03;;
51190;SDS011;37253;48.736;9.294;2023-07-29T02:37:38;5.10;;;3.40;;
51190;SDS011;37253;48.736;9.294;2023-07-29T02:39:39;4.22;;;3.05;;
51190;SDS011;37253;48.736;9.294;2023-07-29T02:41:39;7.05;;;2.80;;
51190;SDS011;37253;48.736;9.294;2023-07-29T02:43:39;4.10;;;2.83;;
51190;SDS011;37253;48.736;9.294;2023-07-29T02:45:41;4.80;;;3.28;;
51190;SDS011;37253;48.736;9.294;2023-07-29T02:47:41;4.22;;;3.00;;
51190;SDS011;37253;48.736;9.294;2023-07-29T02:49:41;4.97;;;2.75;;
51190;SDS011;37253;48.736;9.294;2023-07-29T02:51:42;4.63;;;2.78;;
51190;SDS011;37253;48.736;9.294;2023-07-29T02:53:42;4.80;;;2.88;;
51190;SDS011;37253;48.736;9.294;2023-07-29T02:55:42;3.38;;;2.85;;
51190;SDS011;37253;48.736;9.294;2023-07-29T02:57:42;3.80;;;2.88;;
51190;SDS011;37253;48.736;9.294;2023-07-29T02:59:43;4.00;;;2.63;;
51190;SDS011;37253;48.736;9.294;2023-07-29T03:01:43;3.20;;;2.33;;
51190;SDS011;37253;48.736;9.294;2023-07-29T03:03:43;4.07;;;2.95;;
51190;SDS011;37253;48.736;9.294;2023-07-29T03:05:44;4.32;;;2.85;;
51190;SDS011;37253;48.736;9.294;2023-07-29T03:07:44;4.63;;;2.63;;
51190;SDS011;37253;48.736;9.294;2023-07-29T03:09:45;3.53;;;2.47;;
51190;SDS011;37253;48.736;9.294;2023-07-29T03:11:45;4.13;;;2.35;;
51190;SDS011;37253;48.736;9.294;2023-07-29T03:13:46;3.75;;;2.40;;
51190;SDS011;37253;48.736;9.294;2023-07-29T03:15:46;3.25;;;2.30;;
51190;SDS011;37253;48.736;9.294;2023-07-29T03:17:46;4.07;;;2.40;;
51190;SDS011;37253;48.736;9.294;2023-07-29T03:19:47;3.10;;;2.30;;
51190;SDS011;37253;48.736;9.294;2023-07-29T03:21:47;4.97;;;2.70;;
51190;SDS011;37253;48.736;9.294;2023-07-29T03:23:47;3.70;;;2.70;;
51190;SDS011;37253;48.736;9.294;2023-07-29T03:25:48;2.97;;;2.28;;
51190;SDS011;37253;48.736;9.294;2023-07-29T03:27:51;3.03;;;2.20;;
51190;SDS011;37253;48.736;9.294;2023-07-29T03:29:51;3.45;;;2.40;;
51190;SDS011;37253;48.736;9.294;2023-07-29T03:31:51;3.10;;;2.33;;
51190;SDS011;37253;48.736;9.294;2023-07-29T03:33:52;6.20;;;2.33;;
51190;SDS011;37253;48.736;9.294;2023-07-29T03:35:52;3.03;;;2.08;;
51190;SDS011;37253;48.736;9.294;2023-07-29T03:37:53;4.50;;;2.38;;
51190;SDS011;37253;48.736;9.294;2023-07-29T03:39:53;3.30;;;2.20;;
51190;SDS011;37253;48.736;9.294;2023-07-29T03:41:53;3.97;;;2.40;;
51190;SDS011;37253;48.736;9.294;2023-07-29T03:43:53;3.25;;;2.10;;
51190;SDS011;37253;48.736;9.294;2023-07-29T03:45:54;2.50;;;2.13;;
51190;SDS011;37253;48.736;9.294;2023-07-29T03:47:55;4.75;;;2.65;;
51190;SDS011;37253;48.736;9.294;2023-07-29T03:49:55;3.35;;;2.03;;
51190;SDS011;37253;48.736;9.294;2023-07-29T03:51:55;3.22;;;2.25;;
51190;SDS011;37253;48.736;9.294;2023-07-29T03:53:56;3.20;;;2.00;;
51190;SDS011;37253;48.736;9.294;2023-07-29T03:55:56;6.18;;;2.45;;
51190;SDS011;37253;48.736;9.294;2023-07-29T03:57:57;3.40;;;2.10;;
51190;SDS011;37253;48.736;9.294;2023-07-29T03:59:57;3.20;;;1.92;;
51190;SDS011;37253;48.736;9.294;2023-07-29T04:01:58;4.93;;;2.17;;
51190;SDS011;37253;48.736;9.294;2023-07-29T04:03:58;4.03;;;2.30;;
51190;SDS011;37253;48.736;9.294;2023-07-29T04:05:59;2.85;;;2.20;;
51190;SDS011;37253;48.736;9.294;2023-07-29T04:07:59;3.58;;;1.90;;
51190;SDS011;37253;48.736;9.294;2023-07-29T04:10:00;3.40;;;1.95;;
51190;SDS011;37253;48.736;9.294;2023-07-29T04:12:00;2.72;;;2.17;;
51190;SDS011;37253;48.736;9.294;2023-07-29T04:14:01;4.80;;;2.25;;
51190;SDS011;37253;48.736;9.294;2023-07-29T04:16:02;2.38;;;1.83;;
51190;SDS011;37253;48.736;9.294;2023-07-29T04:18:02;2.53;;;1.85;;
51190;SDS011;37253;48.736;9.294;2023-07-29T04:20:02;2.50;;;1.83;;
51190;SDS011;37253;48.736;9.294;2023-07-29T04:22:03;2.47;;;2.03;;
51190;SDS011;37253;48.736;9.294;2023-07-29T04:24:03;2.55;;;1.85;;
51190;SDS011;37253;48.736;9.294;2023-07-29T04:26:04;3.35;;;2.15;;
51190;SDS011;37253;48.736;9.294;2023-07-29T04:28:04;2.53;;;1.70;;
51190;SDS011;37253;48.736;9.294;2023-07-29T04:30:05;2.85;;;1.83;;
51190;SDS011;37253;48.736;9.294;2023-07-29T04:32:05;2.70;;;1.83;;
51190;SDS011;37253;48.736;9.294;2023-07-29T04:34:06;3.60;;;1.98;;
51190;SDS011;37253;48.736;9.294;2023-07-29T04:36:06;3.08;;;2.08;;
51190;SDS011;37253;48.736;9.294;2023-07-29T04:38:06;3.20;;;1.70;;
51190;SDS011;37253;48.736;9.294;2023-07-29T04:40:07;2.22;;;1.80;;
51190;SDS011;37253;48.736;9.294;2023-07-29T04:42:07;2.47;;;1.80;;
51190;SDS011;37253;48.736;9.294;2023-07-29T04:44:08;3.95;;;1.83;;
51190;SDS011;37253;48.736;9.294;2023-07-29T04:46:08;2.78;;;1.63;;
51190;SDS011;37253;48.736;9.294;2023-07-29T04:48:08;4.18;;;1.83;;
51190;SDS011;37253;48.736;9.294;2023-07-29T04:50:09;3.30;;;1.67;;
51190;SDS011;37253;48.736;9.294;2023-07-29T04:52:09;2.00;;;1.38;;
51190;SDS011;37253;48.736;9.294;2023-07-29T04:54:09;2.80;;;1.63;;
51190;SDS011;37253;48.736;9.294;2023-07-29T04:56:10;2.50;;;1.58;;
51190;SDS011;37253;48.736;9.294;2023-07-29T04:58:10;2.00;;;1.70;;
51190;SDS011;37253;48.736;9.294;2023-07-29T05:00:10;1.80;;;1.70;;
51190;SDS011;37253;48.736;9.294;2023-07-29T05:02:11;3.50;;;1.52;;
51190;SDS011;37253;48.736;9.294;2023-07-29T05:04:11;2.47;;;1.50;;
51190;SDS011;37253;48.736;9.294;2023-07-29T05:06:11;2.17;;;1.60;;
51190;SDS011;37253;48.736;9.294;2023-07-29T05:08:12;4.22;;;1.52;;
51190;SDS011;37253;48.736;9.294;2023-07-29T05:10:12;3.80;;;1.80;;
51190;SDS011;37253;48.736;9.294;2023-07-29T05:12:12;2.25;;;1.65;;
51190;SDS011;37253;48.736;9.294;2023-07-29T05:14:13;3.63;;;1.70;;
51190;SDS011;37253;48.736;9.294;2023-07-29T05:16:14;1.65;;;1.50;;
51190;SDS011;37253;48.736;9.294;2023-07-29T05:18:15;2.58;;;1.33;;
51190;SDS011;37253;48.736;9.294;2023-07-29T05:20:15;2.58;;;1.58;;
51190;SDS011;37253;48.736;9.294;2023-07-29T05:22:16;2.90;;;1.67;;
51190;SDS011;37253;48.736;9.294;2023-07-29T05:24:16;3.05;;;1.63;;
51190;SDS011;37253;48.736;9.294;2023-07-29T05:26:16;2.85;;;1.67;;
51190;SDS011;37253;48.736;9.294;2023-07-29T05:28:16;2.75;;;1.63;;
51190;SDS011;37253;48.736;9.294;2023-07-29T05:30:17;2.03;;;1.60;;
51190;SDS011;37253;48.736;9.294;2023-07-29T05:32:17;1.63;;;1.30;;
51190;SDS011;37253;48.736;9.294;2023-07-29T05:34:17;1.83;;;1.52;;
51190;SDS011;37253;48.736;9.294;2023-07-29T05:36:18;2.35;;;1.50;;
51190;SDS011;37253;48.736;9.294;2023-07-29T05:38:18;2.55;;;1.60;;
51190;SDS011;37253;48.736;9.294;2023-07-29T05:40:18;2.70;;;1.42;;
51190;SDS011;37253;48.736;9.294;2023-07-29T05:42:18;2.78;;;1.55;;
51190;SDS011;37253;48.736;9.294;2023-07-29T05:44:19;2.25;;;1.50;;
51190;SDS011;37253;48.736;9.294;2023-07-29T05:46:20;2.42;;;1.30;;
51190;SDS011;37253;48.736;9.294;2023-07-29T05:48:20;2.03;;;1.30;;
51190;SDS011;37253;48.736;9.294;2023-07-29T05:50:20;3.78;;;1.40;;
51190;SDS011;37253;48.736;9.294;2023-07-29T05:52:21;1.85;;;1.20;;
51190;SDS011;37253;48.736;9.294;2023-07-29T05:54:21;1.88;;;1.40;;
51190;SDS011;37253;48.736;9.294;2023-07-29T05:56:21;2.22;;;1.45;;
51190;SDS011;37253;48.736;9.294;2023-07-29T05:58:22;2.40;;;1.60;;
51190;SDS011;37253;48.736;9.294;2023-07-29T06:00:22;2.40;;;1.20;;
51190;SDS011;37253;48.736;9.294;2023-07-29T06:02:22;3.80;;;1.30;;
51190;SDS011;37253;48.736;9.294;2023-07-29T06:04:23;1.75;;;1.30;;
51190;SDS011;37253;48.736;9.294;2023-07-29T06:06:23;2.85;;;1.48;;
51190;SDS011;37253;48.736;9.294;2023-07-29T06:08:23;3.00;;;1.38;;
51190;SDS011;37253;48.736;9.294;2023-07-29T06:10:24;3.53;;;1.30;;
51190;SDS011;37253;48.736;9.294;2023-07-29T06:12:24;1.98;;;1.25;;
51190;SDS011;37253;48.736;9.294;2023-07-29T06:14:24;2.58;;;1.40;;
51190;SDS011;37253;48.736;9.294;2023-07-29T06:16:24;3.55;;;1.42;;
51190;SDS011;37253;48.736;9.294;2023-07-29T06:18:25;2.15;;;1.20;;
51190;SDS011;37253;48.736;9.294;2023-07-29T06:20:25;3.15;;;1.55;;
51190;SDS011;37253;48.736;9.294;2023-07-29T06:22:25;2.88;;;1.58;;
51190;SDS011;37253;48.736;9.294;2023-07-29T06:24:26;6.13;;;1.50;;
51190;SDS011;37253;48.736;9.294;2023-07-29T06:26:26;2.45;;;1.20;;
51190;SDS011;37253;48.736;9.294;2023-07-29T06:28:26;4.13;;;1.30;;
51190;SDS011;37253;48.736;9.294;2023-07-29T06:30:27;3.90;;;1.50;;
51190;SDS011;37253;48.736;9.294;2023-07-29T06:32:27;2.20;;;1.30;;
51190;SDS011;37253;48.736;9.294;2023-07-29T06:34:27;2.55;;;1.33;;
51190;SDS011;37253;48.736;9.294;2023-07-29T06:36:28;3.60;;;1.50;;
51190;SDS011;37253;48.736;9.294;2023-07-29T06:38:28;6.88;;;1.33;;
51190;SDS011;37253;48.736;9.294;2023-07-29T06:40:28;2.63;;;1.45;;
51190;SDS011;37253;48.736;9.294;2023-07-29T06:42:28;7.40;;;1.30;;
51190;SDS011;37253;48.736;9.294;2023-07-29T06:44:29;6.55;;;1.52;;
51190;SDS011;37253;48.736;9.294;2023-07-29T06:46:30;4.38;;;1.33;;
51190;SDS011;37253;48.736;9.294;2023-07-29T06:48:30;3.92;;;1.33;;
51190;SDS011;37253;48.736;9.294;2023-07-29T06:50:30;10.40;;;1.73;;
51190;SDS011;37253;48.736;9.294;2023-07-29T06:52:31;7.25;;;2.00;;
51190;SDS011;37253;48.736;9.294;2023-07-29T06:54:31;6.65;;;1.40;;
51190;SDS011;37253;48.736;9.294;2023-07-29T06:56:31;6.95;;;1.45;;
51190;SDS011;37253;48.736;9.294;2023-07-29T06:58:32;5.55;;;1.50;;
51190;SDS011;37253;48.736;9.294;2023-07-29T07:00:32;4.15;;;1.35;;
51190;SDS011;37253;48.736;9.294;2023-07-29T07:02:32;3.90;;;1.33;;
51190;SDS011;37253;48.736;9.294;2023-07-29T07:04:32;3.33;;;1.33;;
51190;SDS011;37253;48.736;9.294;2023-07-29T07:06:33;9.65;;;1.77;;
51190;SDS011;37253;48.736;9.294;2023-07-29T07:08:33;6.72;;;1.33;;
51190;SDS011;37253;48.736;9.294;2023-07-29T07:10:33;5.88;;;1.33;;
51190;SDS011;37253;48.736;9.294;2023-07-29T07:12:34;7.05;;;1.30;;
51190;SDS011;37253;48.736;9.294;2023-07-29T07:14:34;5.57;;;1.30;;
51190;SDS011;37253;48.736;9.294;2023-07-29T07:16:34;5.43;;;1.30;;
51190;SDS011;37253;48.736;9.294;2023-07-29T07:18:36;2.80;;;1.38;;
51190;SDS011;37253;48.736;9.294;2023-07-29T07:20:37;3.83;;;1.30;;
51190;SDS011;37253;48.736;9.294;2023-07-29T07:22:37;5.45;;;1.10;;
51190;SDS011;37253;48.736;9.294;2023-07-29T07:24:37;5.47;;;1.13;;
51190;SDS011;37253;48.736;9.294;2023-07-29T07:26:38;2.67;;;1.08;;
51190;SDS011;37253;48.736;9.294;2023-07-29T07:28:38;4.53;;;1.20;;
51190;SDS011;37253;48.736;9.294;2023-07-29T07:30:41;4.32;;;1.52;;
51190;SDS011;37253;48.736;9.294;2023-07-29T07:32:41;4.10;;;1.33;;
51190;SDS011;37253;48.736;9.294;2023-07-29T07:34:42;12.23;;;1.35;;
51190;SDS011;37253;48.736;9.294;2023-07-29T07:36:42;6.20;;;1.35;;
51190;SDS011;37253;48.736;9.294;2023-07-29T07:38:42;9.40;;;1.40;;
51190;SDS011;37253;48.736;9.294;2023-07-29T07:40:43;9.90;;;1.75;;
51190;SDS011;37253;48.736;9.294;2023-07-29T07:42:53;3.05;;;1.40;;
51190;SDS011;37253;48.736;9.294;2023-07-29T07:44:53;3.50;;;1.30;;
51190;SDS011;37253;48.736;9.294;2023-07-29T07:46:53;12.25;;;1.60;;
51190;SDS011;37253;48.736;9.294;2023-07-29T07:48:54;2.92;;;1.23;;
51190;SDS011;37253;48.736;9.294;2023-07-29T07:50:54;3.13;;;1.10;;
51190;SDS011;37253;48.736;9.294;2023-07-29T07:52:54;7.60;;;1.42;;
51190;SDS011;37253;48.736;9.294;2023-07-29T07:54:55;6.93;;;1.05;;
51190;SDS011;37253;48.736;9.294;2023-07-29T07:56:55;4.05;;;1.60;;
51190;SDS011;37253;48.736;9.294;2023-07-29T07:58:55;6.72;;;1.30;;
51190;SDS011;37253;48.736;9.294;2023-07-29T08:01:05;7.45;;;1.20;;
51190;SDS011;37253;48.736;9.294;2023-07-29T08:03:06;4.53;;;1.25;;
51190;SDS011;37253;48.736;9.294;2023-07-29T08:05:06;3.97;;;1.48;;
51190;SDS011;37253;48.736;9.294;2023-07-29T08:07:07;4.10;;;1.02;;
51190;SDS011;37253;48.736;9.294;2023-07-29T08:09:07;4.53;;;1.20;;
51190;SDS011;37253;48.736;9.294;2023-07-29T08:11:08;4.22;;;1.13;;
51190;SDS011;37253;48.736;9.294;2023-07-29T08:13:08;2.83;;;1.23;;
51190;SDS011;37253;48.736;9.294;2023-07-29T08:15:08;3.25;;;1.20;;
51190;SDS011;37253;48.736;9.294;2023-07-29T08:17:09;4.57;;;1.30;;
51190;SDS011;37253;48.736;9.294;2023-07-29T08:19:09;4.70;;;1.15;;
51190;SDS011;37253;48.736;9.294;2023-07-29T08:21:09;3.95;;;1.10;;
51190;SDS011;37253;48.736;9.294;2023-07-29T08:23:10;2.05;;;0.90;;
51190;SDS011;37253;48.736;9.294;2023-07-29T08:25:10;3.90;;;1.30;;
51190;SDS011;37253;48.736;9.294;2023-07-29T08:27:10;3.67;;;1.40;;
51190;SDS011;37253;48.736;9.294;2023-07-29T08:29:11;2.05;;;1.30;;
51190;SDS011;37253;48.736;9.294;2023-07-29T08:31:12;4.80;;;1.40;;
51190;SDS011;37253;48.736;9.294;2023-07-29T08:33:12;1.83;;;1.05;;
51190;SDS011;37253;48.736;9.294;2023-07-29T08:35:12;3.92;;;1.20;;
51190;SDS011;37253;48.736;9.294;2023-07-29T08:37:13;1.83;;;1.00;;
51190;SDS011;37253;48.736;9.294;2023-07-29T08:39:13;3.13;;;1.10;;
51190;SDS011;37253;48.736;9.294;2023-07-29T08:41:14;4.78;;;1.42;;
51190;SDS011;37253;48.736;9.294;2023-07-29T08:45:18;4.72;;;1.08;;
51190;SDS011;37253;48.736;9.294;2023-07-29T08:47:19;3.22;;;1.00;;
51190;SDS011;37253;48.736;9.294;2023-07-29T08:49:19;2.47;;;1.20;;
51190;SDS011;37253;48.736;9.294;2023-07-29T08:51:19;4.32;;;1.15;;
51190;SDS011;37253;48.736;9.294;2023-07-29T08:53:21;2.10;;;1.10;;
51190;SDS011;37253;48.736;9.294;2023-07-29T08:55:22;3.45;;;1.30;;
51190;SDS011;37253;48.736;9.294;2023-07-29T08:57:22;4.78;;;1.20;;
51190;SDS011;37253;48.736;9.294;2023-07-29T08:59:23;3.63;;;1.20;;
51190;SDS011;37253;48.736;9.294;2023-07-29T09:01:23;3.35;;;1.20;;
51190;SDS011;37253;48.736;9.294;2023-07-29T09:03:23;4.80;;;1.20;;
51190;SDS011;37253;48.736;9.294;2023-07-29T09:05:24;2.10;;;0.98;;
51190;SDS011;37253;48.736;9.294;2023-07-29T09:07:24;5.03;;;1.17;;
51190;SDS011;37253;48.736;9.294;2023-07-29T09:09:25;2.00;;;1.02;;
51190;SDS011;37253;48.736;9.294;2023-07-29T09:11:25;3.20;;;1.30;;
51190;SDS011;37253;48.736;9.294;2023-07-29T09:13:26;4.82;;;1.20;;
51190;SDS011;37253;48.736;9.294;2023-07-29T09:15:27;2.50;;;1.13;;
51190;SDS011;37253;48.736;9.294;2023-07-29T09:17:31;2.20;;;1.17;;
51190;SDS011;37253;48.736;9.294;2023-07-29T09:19:32;6.07;;;1.40;;
51190;SDS011;37253;48.736;9.294;2023-07-29T09:21:33;4.78;;;1.27;;
51190;SDS011;37253;48.736;9.294;2023-07-29T09:23:40;12.77;;;1.58;;
51190;SDS011;37253;48.736;9.294;2023-07-29T09:25:43;8.40;;;1.40;;
51190;SDS011;37253;48.736;9.294;2023-07-29T09:27:46;10.90;;;1.70;;
51190;SDS011;37253;48.736;9.294;2023-07-29T09:29:46;7.32;;;1.63;;
51190;SDS011;37253;48.736;9.294;2023-07-29T09:31:46;4.18;;;1.40;;
51190;SDS011;37253;48.736;9.294;2023-07-29T09:33:47;7.25;;;1.48;;
51190;SDS011;37253;48.736;9.294;2023-07-29T09:35:47;8.57;;;1.35;;
51190;SDS011;37253;48.736;9.294;2023-07-29T09:37:48;8.70;;;1.30;;
51190;SDS011;37253;48.736;9.294;2023-07-29T09:39:49;7.28;;;1.48;;
51190;SDS011;37253;48.736;9.294;2023-07-29T09:41:50;7.95;;;1.55;;
51190;SDS011;37253;48.736;9.294;2023-07-29T09:44:00;7.50;;;1.48;;
51190;SDS011;37253;48.736;9.294;2023-07-29T09:46:02;8.52;;;1.60;;
51190;SDS011;37253;48.736;9.294;2023-07-29T09:48:04;6.90;;;1.60;;
51190;SDS011;37253;48.736;9.294;2023-07-29T09:50:09;5.88;;;1.40;;
51190;SDS011;37253;48.736;9.294;2023-07-29T09:52:10;6.38;;;1.55;;
51190;SDS011;37253;48.736;9.294;2023-07-29T09:54:10;2.85;;;1.50;;
51190;SDS011;37253;48.736;9.294;2023-07-29T09:56:13;6.40;;;1.50;;
51190;SDS011;37253;48.736;9.294;2023-07-29T09:58:14;5.70;;;1.30;;
51190;SDS011;37253;48.736;9.294;2023-07-29T10:00:14;2.45;;;1.10;;
51190;SDS011;37253;48.736;9.294;2023-07-29T10:02:16;4.28;;;1.38;;
51190;SDS011;37253;48.736;9.294;2023-07-29T10:04:16;4.45;;;1.40;;
51190;SDS011;37253;48.736;9.294;2023-07-29T10:06:17;7.90;;;1.65;;
51190;SDS011;37253;48.736;9.294;2023-07-29T10:08:17;6.28;;;1.42;;
51190;SDS011;37253;48.736;9.294;2023-07-29T10:10:18;4.18;;;1.25;;
51190;SDS011;37253;48.736;9.294;2023-07-29T10:12:18;2.17;;;1.13;;
51190;SDS011;37253;48.736;9.294;2023-07-29T10:14:19;4.38;;;1.17;;
51190;SDS011;37253;48.736;9.294;2023-07-29T10:16:19;4.90;;;1.33;;
51190;SDS011;37253;48.736;9.294;2023-07-29T10:18:24;2.45;;;1.15;;
51190;SDS011;37253;48.736;9.294;2023-07-29T10:20:25;7.07;;;1.27;;
51190;SDS011;37253;48.736;9.294;2023-07-29T10:22:29;3.30;;;1.30;;
51190;SDS011;37253;48.736;9.294;2023-07-29T10:24:33;2.83;;;0.90;;
51190;SDS011;37253;48.736;9.294;2023-07-29T10:26:34;4.38;;;1.20;;
51190;SDS011;37253;48.736;9.294;2023-07-29T10:28:39;4.60;;;1.13;;
51190;SDS011;37253;48.736;9.294;2023-07-29T10:30:41;4.68;;;1.17;;
51190;SDS011;37253;48.736;9.294;2023-07-29T10:32:42;3.95;;;1.20;;
51190;SDS011;37253;48.736;9.294;2023-07-29T10:34:45;8.40;;;1.27;;
51190;SDS011;37253;48.736;9.294;2023-07-29T10:36:46;5.43;;;1.20;;
51190;SDS011;37253;48.736;9.294;2023-07-29T10:38:47;3.42;;;1.27;;
51190;SDS011;37253;48.736;9.294;2023-07-29T10:40:51;2.70;;;1.40;;
51190;SDS011;37253;48.736;9.294;2023-07-29T10:43:02;3.35;;;1.10;;
51190;SDS011;37253;48.736;9.294;2023-07-29T10:45:20;7.07;;;1.10;;
51190;SDS011;37253;48.736;9.294;2023-07-29T10:47:21;5.55;;;1.20;;
51190;SDS011;37253;48.736;9.294;2023-07-29T10:49:23;3.67;;;1.08;;
51190;SDS011;37253;48.736;9.294;2023-07-29T10:51:30;2.80;;;1.08;;
51190;SDS011;37253;48.736;9.294;2023-07-29T10:53:36;4.88;;;1.20;;
51190;SDS011;37253;48.736;9.294;2023-07-29T10:55:37;2.85;;;1.10;;
51190;SDS011;37253;48.736;9.294;2023-07-29T10:57:38;3.20;;;1.23;;
51190;SDS011;37253;48.736;9.294;2023-07-29T10:59:40;3.47;;;1.00;;
51190;SDS011;37253;48.736;9.294;2023-07-29T11:01:42;2.42;;;1.10;;
51190;SDS011;37253;48.736;9.294;2023-07-29T11:04:00;5.18;;;1.20;;
51190;SDS011;37253;48.736;9.294;2023-07-29T11:06:01;3.85;;;1.27;;
51190;SDS011;37253;48.736;9.294;2023-07-29T11:08:14;2.47;;;1.20;;
51190;SDS011;37253;48.736;9.294;2023-07-29T11:10:19;3.08;;;0.98;;
51190;SDS011;37253;48.736;9.294;2023-07-29T11:14:36;2.15;;;1.02;;
51190;SDS011;37253;48.736;9.294;2023-07-29T11:16:36;4.80;;;1.20;;
51190;SDS011;37253;48.736;9.294;2023-07-29T11:18:37;2.00;;;1.00;;
51190;SDS011;37253;48.736;9.294;2023-07-29T11:20:37;1.92;;;1.00;;
51190;SDS011;37253;48.736;9.294;2023-07-29T11:22:37;4.93;;;1.05;;
51190;SDS011;37253;48.736;9.294;2023-07-29T11:24:41;2.22;;;1.10;;
51190;SDS011;37253;48.736;9.294;2023-07-29T11:26:46;2.72;;;1.10;;
51190;SDS011;37253;48.736;9.294;2023-07-29T11:28:46;1.65;;;0.90;;
51190;SDS011;37253;48.736;9.294;2023-07-29T11:30:46;3.58;;;1.05;;
51190;SDS011;37253;48.736;9.294;2023-07-29T11:32:47;2.67;;;1.10;;
51190;SDS011;37253;48.736;9.294;2023-07-29T11:34:47;4.03;;;1.10;;
51190;SDS011;37253;48.736;9.294;2023-07-29T11:36:47;1.40;;;1.00;;
51190;SDS011;37253;48.736;9.294;2023-07-29T11:38:48;3.08;;;1.10;;
51190;SDS011;37253;48.736;9.294;2023-07-29T11:40:55;3.20;;;1.13;;
51190;SDS011;37253;48.736;9.294;2023-07-29T11:42:56;2.35;;;1.20;;
51190;SDS011;37253;48.736;9.294;2023-07-29T11:44:57;2.20;;;0.90;;
51190;SDS011;37253;48.736;9.294;2023-07-29T11:46:58;5.07;;;1.00;;
51190;SDS011;37253;48.736;9.294;2023-07-29T11:48:58;1.70;;;1.08;;
51190;SDS011;37253;48.736;9.294;2023-07-29T11:51:01;2.25;;;1.20;;
51190;SDS011;37253;48.736;9.294;2023-07-29T11:53:03;1.67;;;1.00;;
51190;SDS011;37253;48.736;9.294;2023-07-29T11:55:04;4.22;;;1.10;;
51190;SDS011;37253;48.736;9.294;2023-07-29T11:57:08;2.45;;;1.10;;
51190;SDS011;37253;48.736;9.294;2023-07-29T11:59:08;1.88;;;0.88;;
51190;SDS011;37253;48.736;9.294;2023-07-29T12:01:09;5.25;;;1.10;;
51190;SDS011;37253;48.736;9.294;2023-07-29T12:03:09;1.67;;;1.00;;
51190;SDS011;37253;48.736;9.294;2023-07-29T12:05:11;2.95;;;1.23;;
51190;SDS011;37253;48.736;9.294;2023-07-29T12:07:12;1.92;;;1.20;;
51190;SDS011;37253;48.736;9.294;2023-07-29T12:09:14;2.60;;;1.10;;
51190;SDS011;37253;48.736;9.294;2023-07-29T12:11:14;2.10;;;1.17;;
51190;SDS011;37253;48.736;9.294;2023-07-29T12:13:14;2.25;;;1.20;;
51190;SDS011;37253;48.736;9.294;2023-07-29T12:15:27;2.90;;;1.20;;
51190;SDS011;37253;48.736;9.294;2023-07-29T12:17:28;2.95;;;1.00;;
51190;SDS011;37253;48.736;9.294;2023-07-29T12:19:35;3.33;;;1.20;;